Rigaud, Canada
Current Conditions -  °F | °C
As of 4:00 AM on Friday 31 Oct 2014 (Local Time) from CYMX Reporting Station
Broken Clouds Broken Clouds  
Wind Chill: 34°   Ceiling: 4500
Heat Index: 34°   Visibility: 25mi
Dew Point: 28°   Wind: 0mph
Humidity: 81%   Direction: NA
Pressure: 30.03"   Gusts: NA
Location:  45.47°N, 74.3°W
Report Text: CYMX 310800Z 00000KT 25SM BKN045 BKN140 01/M02 A3003 RMK SC6AC1 SLP174
Loading
Personal Weather Stations






























Interactive Weather Map
Tropical Storm Tracking
New forecast layout! Learn more

10-Day Weather Forecast

Advertisements
Track Severe Weather on mobile